»·PEaware :: JNY60 KPDX-KSEA

JNY60 :: KPDX-KSEA

FLIGHT INFORMATION

Flight Status: Arrived
Operator: Unknown
More flights by this operator :: More flights under this callsign
Pilot: Max W. (2591)
Aircraft: BOEING 757-200
(B752)
More flights by this aircraft type
Origin: KPDX Portland Intl
United States
Destination: KSEA Seattle-Tacoma Intl
United States
More flights between these airports :: More routes between these airports
Route: COUGA KRIEG HAWKZ7
File this flight plan on PilotEdge
Remarks:
Altitude:
(Current/Filed)
19,000ft
Speed:
(Current/Filed)
450kts
Departed: 13-Oct-19 10:30 AM
Arrived: 13-Oct-19 11:04 AM
Distance/Time
Traveled:
113nm/0:34
Distance/Time
To Go:
Arrived

Flight Plot

Page will automatically refresh every two minutes.

Flight plan parsing failed; only flown route is shown


Map Options




Map Legend


Flown Route
Filed Route
Departure Airport
Arrival Airport
Navaid (VOR, NDB)
Fix

Horizontal Profiles

Position Reports

Time Latitude Longitude Heading Altitude Ground
Speed
13-Oct-19 09:52 45.587262 -122.582236 209 40ft 0kts
13-Oct-19 09:53 45.587262 -122.582236 209 40ft 0kts
13-Oct-19 09:54 45.587262 -122.582236 209 40ft 0kts
13-Oct-19 09:55 45.587262 -122.582236 209 40ft 0kts
13-Oct-19 09:56 45.587262 -122.582236 209 40ft 0kts
13-Oct-19 09:57 45.587262 -122.582236 209 40ft 0kts
13-Oct-19 09:58 45.587262 -122.582236 209 40ft 0kts
13-Oct-19 09:59 45.587262 -122.582236 209 40ft 0kts
13-Oct-19 10:00 45.587262 -122.582236 209 40ft 0kts
13-Oct-19 10:01 45.587262 -122.582236 209 40ft 0kts
13-Oct-19 10:02 45.587262 -122.582236 209 40ft 0kts
13-Oct-19 10:03 45.587262 -122.582236 209 40ft 0kts
13-Oct-19 10:04 45.587262 -122.582236 209 40ft 0kts
13-Oct-19 10:05 45.587262 -122.582236 209 40ft 0kts
13-Oct-19 10:06 45.587262 -122.582236 209 40ft 0kts
13-Oct-19 10:07 45.587262 -122.582236 209 40ft 0kts
13-Oct-19 10:08 45.587262 -122.582236 209 40ft 0kts
13-Oct-19 10:09 45.587262 -122.582236 209 40ft 0kts
13-Oct-19 10:10 45.587262 -122.582236 209 40ft 0kts
13-Oct-19 10:11 45.587262 -122.582236 209 40ft 0kts
13-Oct-19 10:12 45.587262 -122.582236 209 40ft 0kts
13-Oct-19 10:13 45.587262 -122.582236 209 40ft 0kts
13-Oct-19 10:14 45.587262 -122.582236 209 40ft 0kts
13-Oct-19 10:15 45.587262 -122.582236 209 40ft 0kts
13-Oct-19 10:16 45.587262 -122.582236 209 40ft 0kts
13-Oct-19 10:17 45.587262 -122.582236 209 40ft 0kts
13-Oct-19 10:18 45.587262 -122.582236 209 40ft 0kts
13-Oct-19 10:19 45.587262 -122.582236 209 40ft 0kts
13-Oct-19 10:20 45.587262 -122.582236 209 40ft 0kts
13-Oct-19 10:21 45.587262 -122.582236 209 40ft 0kts
13-Oct-19 10:22 45.587262 -122.582236 209 40ft 0kts
13-Oct-19 10:23 45.587262 -122.582236 209 40ft 0kts
13-Oct-19 10:24 45.587262 -122.582236 209 40ft 0kts
13-Oct-19 10:25 45.587262 -122.582236 209 40ft 0kts
13-Oct-19 10:26 45.587260 -122.582237 205 41ft 0kts
13-Oct-19 10:27 45.587147 -122.581110 356 41ft 25kts
13-Oct-19 10:28 45.591426 -122.590306 299 41ft 34kts
13-Oct-19 10:29 45.593612 -122.592435 118 41ft 87kts
13-Oct-19 10:30 45.570486 -122.533251 118 3563ft 222kts
13-Oct-19 10:31 45.579161 -122.442797 37 9091ft 287kts
13-Oct-19 10:32 45.657649 -122.439100 335 13821ft 333kts
13-Oct-19 10:33 45.752608 -122.491708 336 15815ft 375kts
13-Oct-19 10:34 45.849658 -122.544596 336 18936ft 373kts
13-Oct-19 10:35 45.946138 -122.597330 336 18991ft 380kts
13-Oct-19 10:36 46.047761 -122.653055 336 18996ft 392kts
13-Oct-19 10:37 46.146790 -122.687936 349 19000ft 396kts
13-Oct-19 10:38 46.255928 -122.709533 349 19000ft 396kts
13-Oct-19 10:39 46.365796 -122.723694 355 19000ft 398kts
13-Oct-19 10:40 46.476720 -122.727815 355 18997ft 398kts
13-Oct-19 10:41 46.587918 -122.731832 355 18991ft 399kts
13-Oct-19 10:42 46.692738 -122.735573 355 17096ft 353kts
13-Oct-19 10:43 46.787936 -122.728244 21 16041ft 347kts
13-Oct-19 10:44 46.860759 -122.649555 35 13530ft 315kts
13-Oct-19 10:45 46.929281 -122.571838 32 12267ft 306kts
13-Oct-19 10:46 47.007766 -122.531643 14 11977ft 298kts
13-Oct-19 10:47 47.087238 -122.498845 5 11820ft 299kts
13-Oct-19 10:48 47.165637 -122.484577 5 10667ft 288kts
13-Oct-19 10:49 47.241703 -122.472213 3 9975ft 262kts
13-Oct-19 10:50 47.313778 -122.461205 3 9312ft 261kts
13-Oct-19 10:51 47.386442 -122.455269 357 7945ft 258kts
13-Oct-19 10:52 47.452475 -122.455327 358 6770ft 226kts
13-Oct-19 10:53 47.515126 -122.455443 358 5280ft 222kts
13-Oct-19 10:54 47.576849 -122.456435 358 3973ft 218kts
13-Oct-19 10:55 47.637925 -122.457382 358 3981ft 219kts
13-Oct-19 10:56 47.686841 -122.419312 77 3991ft 221kts
13-Oct-19 10:57 47.688644 -122.329396 110 3983ft 218kts
13-Oct-19 10:58 47.640888 -122.306263 180 3798ft 190kts
13-Oct-19 10:59 47.590744 -122.306594 180 2873ft 177kts
13-Oct-19 11:00 47.542371 -122.307093 180 1934ft 173kts
13-Oct-19 11:01 47.503171 -122.307452 180 1148ft 121kts
13-Oct-19 11:02 47.469995 -122.307724 181 568ft 120kts
13-Oct-19 11:03 47.450150 -122.306684 62 360ft 13kts
13-Oct-19 11:04 47.455079 -122.306297 4 360ft 21kts
13-Oct-19 11:05 47.457231 -122.304178 58 360ft 2kts

Navigation Log

Ident Type
Flight plan parsing failed, navigation log unavailable